Time;durP1;ratioP1;P1;durP2;ratioP2;P2;SDS_P1;SDS_P2;PMS_P1;PMS_P2;Temp;Humidity;BMP_temperature;BMP_pressure;BME280_temperature;BME280_humidity;BME280_pressure;Samples;Min_cycle;Max_cycle;Signal;HPM_P1;HPM_P2
2023/12/17 00:00:48;;;;;;;12.48;11.27;;;9.70;99.90;;;;;;5028706;28;20047;-77
2023/12/17 00:03:14;;;;;;;12.95;11.65;;;9.70;99.90;;;;;;5029850;28;20058;-77
2023/12/17 00:05:40;;;;;;;12.23;11.07;;;9.70;99.90;;;;;;5028807;28;20124;-76
2023/12/17 00:08:05;;;;;;;12.88;11.65;;;9.70;99.90;;;;;;4945473;28;20165;-79
2023/12/17 00:10:31;;;;;;;11.57;10.45;;;9.70;99.90;;;;;;4960979;28;20411;-78
2023/12/17 00:12:57;;;;;;;11.77;10.77;;;9.70;99.90;;;;;;5028103;28;20129;-79
2023/12/17 00:15:22;;;;;;;11.27;10.32;;;9.70;99.90;;;;;;4960788;28;20059;-77
2023/12/17 00:17:48;;;;;;;11.55;10.55;;;9.70;99.90;;;;;;5028223;28;20101;-78
2023/12/17 00:20:14;;;;;;;12.02;10.95;;;9.70;99.90;;;;;;5029531;28;20380;-80
2023/12/17 00:22:40;;;;;;;12.15;11.20;;;9.70;99.90;;;;;;4944945;28;20047;-77
2023/12/17 00:25:06;;;;;;;12.68;11.18;;;9.70;99.90;;;;;;4961515;28;20506;-79
2023/12/17 00:27:31;;;;;;;12.20;11.02;;;9.70;99.90;;;;;;4961792;28;20126;-77
2023/12/17 00:29:57;;;;;;;12.93;11.82;;;9.70;99.90;;;;;;4960396;28;20078;-79
2023/12/17 00:32:23;;;;;;;12.20;11.25;;;9.60;99.90;;;;;;4945341;28;20078;-79
2023/12/17 00:34:48;;;;;;;13.45;12.35;;;9.70;99.90;;;;;;4960061;28;20134;-77
2023/12/17 00:37:14;;;;;;;12.55;11.52;;;9.70;99.90;;;;;;4961744;28;20065;-76
2023/12/17 00:39:40;;;;;;;11.57;10.48;;;9.70;99.90;;;;;;4960043;28;20058;-76
2023/12/17 00:42:06;;;;;;;11.32;10.32;;;9.70;99.90;;;;;;4960907;28;20576;-78
2023/12/17 00:44:31;;;;;;;11.57;10.48;;;9.70;99.90;;;;;;5028953;28;20118;-77
2023/12/17 00:46:57;;;;;;;11.30;10.32;;;9.60;99.90;;;;;;4960088;28;20050;-77
2023/12/17 00:49:23;;;;;;;11.10;10.10;;;9.60;99.90;;;;;;5029830;28;20087;-77
2023/12/17 00:51:48;;;;;;;11.43;10.52;;;9.60;99.90;;;;;;4960185;28;20043;-78
2023/12/17 00:54:14;;;;;;;11.10;9.63;;;9.60;99.90;;;;;;4961669;28;20042;-78
2023/12/17 00:56:40;;;;;;;11.10;10.20;;;9.60;99.90;;;;;;4959940;28;20118;-76
2023/12/17 00:59:05;;;;;;;11.15;10.05;;;9.70;99.90;;;;;;5028734;28;20066;-78
2023/12/17 01:01:31;;;;;;;11.60;9.77;;;9.60;99.90;;;;;;4960404;28;20118;-78
2023/12/17 01:03:57;;;;;;;10.73;9.80;;;9.70;99.90;;;;;;4961488;28;20051;-77
2023/12/17 01:06:22;;;;;;;11.20;10.15;;;9.70;99.90;;;;;;4929371;28;20059;-75
2023/12/17 01:08:48;;;;;;;10.90;10.00;;;9.70;99.90;;;;;;4958657;28;20564;-78
2023/12/17 01:11:14;;;;;;;11.35;10.35;;;9.70;99.90;;;;;;4961341;28;20035;-77
2023/12/17 01:13:39;;;;;;;10.50;9.60;;;9.70;99.90;;;;;;4946018;28;20055;-76
2023/12/17 01:16:05;;;;;;;12.00;10.48;;;9.70;99.90;;;;;;4944756;28;20052;-77
2023/12/17 01:18:31;;;;;;;10.93;9.80;;;9.70;99.90;;;;;;4960530;28;20055;-76
2023/12/17 01:20:59;;;;;;;10.88;9.73;;;9.60;99.90;;;;;;4959875;28;20055;-74
2023/12/17 01:23:25;;;;;;;13.50;12.40;;;9.70;99.90;;;;;;4944551;28;20084;-76
2023/12/17 01:25:51;;;;;;;15.80;14.63;;;9.70;99.90;;;;;;4959868;28;20043;-75
2023/12/17 01:28:17;;;;;;;11.55;10.38;;;9.70;99.90;;;;;;4961409;28;20601;-75
2023/12/17 01:30:43;;;;;;;11.60;10.48;;;9.70;99.90;;;;;;5026606;28;20051;-76
2023/12/17 01:33:09;;;;;;;11.20;9.98;;;9.70;99.90;;;;;;4961114;28;20130;-79
2023/12/17 01:35:34;;;;;;;11.77;10.57;;;9.70;99.90;;;;;;4959607;28;20077;-75
2023/12/17 01:38:00;;;;;;;13.95;10.48;;;9.70;99.90;;;;;;4943428;28;20039;-77
2023/12/17 01:40:26;;;;;;;11.88;10.88;;;9.70;99.90;;;;;;4959964;28;20051;-76
2023/12/17 01:42:52;;;;;;;10.93;9.93;;;9.70;99.90;;;;;;5026705;28;20408;-77
2023/12/17 01:45:18;;;;;;;11.25;10.32;;;9.70;99.90;;;;;;4960764;28;20038;-75
2023/12/17 01:47:44;;;;;;;11.75;10.15;;;9.70;99.90;;;;;;4943412;28;20051;-76
2023/12/17 01:50:10;;;;;;;12.27;11.38;;;9.70;99.90;;;;;;4959927;28;20047;-77
2023/12/17 01:52:38;;;;;;;10.93;9.93;;;9.70;99.90;;;;;;4944138;28;20142;-75
2023/12/17 01:55:04;;;;;;;11.85;10.77;;;9.70;99.90;;;;;;4960586;28;20047;-75
2023/12/17 01:57:30;;;;;;;11.73;10.63;;;9.70;99.90;;;;;;5027959;28;20056;-78
2023/12/17 01:59:57;;;;;;;12.40;11.20;;;9.70;99.90;;;;;;4959377;28;20113;-75
2023/12/17 02:02:23;;;;;;;12.40;11.38;;;9.70;99.90;;;;;;4960002;28;20066;-75
2023/12/17 02:04:50;;;;;;;14.70;11.38;;;9.70;99.90;;;;;;5026391;28;20046;-76
2023/12/17 02:07:16;;;;;;;10.65;9.80;;;9.70;99.90;;;;;;4960813;28;20434;-77
2023/12/17 02:09:42;;;;;;;11.32;10.43;;;9.70;99.90;;;;;;4942853;28;20123;-75
2023/12/17 02:12:14;;;;;;;13.57;12.35;;;9.70;99.90;;;;;;4944213;28;20054;-76
2023/12/17 02:14:40;;;;;;;12.60;11.38;;;9.70;99.90;;;;;;4958704;28;20043;-75
2023/12/17 02:17:06;;;;;;;11.82;10.90;;;9.70;99.90;;;;;;4926865;28;20066;-76
2023/12/17 02:19:32;;;;;;;12.52;11.27;;;9.70;99.90;;;;;;4960267;28;20074;-76
2023/12/17 02:21:57;;;;;;;12.50;11.20;;;9.70;99.90;;;;;;4959983;28;20066;-76
2023/12/17 02:24:23;;;;;;;13.55;12.20;;;9.70;99.90;;;;;;5027370;28;20047;-77
2023/12/17 02:26:49;;;;;;;13.23;11.95;;;9.70;99.90;;;;;;5026914;28;20055;-77
2023/12/17 02:29:14;;;;;;;13.32;12.02;;;9.70;99.90;;;;;;4960257;28;20038;-78
2023/12/17 02:31:40;;;;;;;12.63;11.43;;;9.70;99.90;;;;;;4959847;28;20399;-76
2023/12/17 02:34:06;;;;;;;12.77;11.65;;;9.70;99.90;;;;;;4958506;28;20063;-75
2023/12/17 02:36:31;;;;;;;12.73;11.43;;;9.70;99.90;;;;;;4959896;28;20055;-76
2023/12/17 02:38:57;;;;;;;15.80;14.40;;;9.70;99.90;;;;;;4958623;28;20046;-78
2023/12/17 02:41:23;;;;;;;13.15;11.95;;;9.70;99.90;;;;;;4944544;28;20156;-77
2023/12/17 02:43:49;;;;;;;13.18;11.48;;;9.70;99.90;;;;;;4959469;28;20046;-77
2023/12/17 02:46:15;;;;;;;14.07;12.38;;;9.70;99.90;;;;;;4959617;28;20047;-80
2023/12/17 02:48:41;;;;;;;12.98;11.88;;;9.70;99.90;;;;;;4959413;28;20105;-77
2023/12/17 02:51:07;;;;;;;15.05;11.73;;;9.70;99.90;;;;;;4959344;28;20138;-77
2023/12/17 02:53:32;;;;;;;14.13;11.77;;;9.70;99.90;;;;;;4960702;28;20039;-76
2023/12/17 02:56:00;;;;;;;13.68;12.38;;;9.70;99.90;;;;;;4929520;28;20051;-77
2023/12/17 02:58:25;;;;;;;13.02;11.65;;;9.70;99.90;;;;;;4944372;28;20051;-77
2023/12/17 03:00:51;;;;;;;14.63;11.80;;;9.70;99.90;;;;;;5026254;28;20051;-75
2023/12/17 03:03:17;;;;;;;14.27;12.50;;;9.70;99.90;;;;;;5027097;28;20097;-80
2023/12/17 03:05:42;;;;;;;12.93;11.55;;;9.70;99.90;;;;;;4959309;28;20052;-78
2023/12/17 03:08:08;;;;;;;13.27;11.98;;;9.70;99.90;;;;;;5026231;28;20047;-79
2023/12/17 03:10:36;;;;;;;12.32;11.15;;;9.70;99.90;;;;;;4960038;28;20059;-76
2023/12/17 03:13:02;;;;;;;12.82;11.63;;;9.70;99.90;;;;;;4960197;28;20067;-74
2023/12/17 03:15:28;;;;;;;13.32;11.98;;;9.70;99.90;;;;;;4960032;28;20043;-78
2023/12/17 03:17:54;;;;;;;12.60;11.43;;;9.60;99.90;;;;;;4941833;28;20035;-77
2023/12/17 03:20:19;;;;;;;12.20;11.10;;;9.70;99.90;;;;;;5027453;28;20049;-79
2023/12/17 03:22:45;;;;;;;15.20;11.30;;;9.60;99.90;;;;;;4943332;28;20042;-78
2023/12/17 03:25:11;;;;;;;12.00;10.82;;;9.70;99.90;;;;;;4958830;28;20051;-77
2023/12/17 03:27:36;;;;;;;11.57;9.93;;;9.70;99.90;;;;;;5028462;28;20047;-78
2023/12/17 03:30:02;;;;;;;12.68;11.32;;;9.70;99.90;;;;;;4929735;28;20043;-78
2023/12/17 03:32:28;;;;;;;21.08;19.25;;;9.70;99.90;;;;;;4962255;28;20036;-77
2023/12/17 03:34:53;;;;;;;11.63;10.48;;;9.70;99.90;;;;;;4961204;28;20138;-79
2023/12/17 03:37:19;;;;;;;15.48;10.60;;;9.70;99.90;;;;;;4962744;28;20081;-75
2023/12/17 03:39:45;;;;;;;13.45;10.88;;;9.70;99.90;;;;;;4962047;28;20130;-78
2023/12/17 03:42:10;;;;;;;11.02;9.68;;;9.70;99.90;;;;;;5030821;28;20043;-77
2023/12/17 03:44:36;;;;;;;12.32;11.02;;;9.70;99.90;;;;;;4962779;28;20540;-76
2023/12/17 03:47:03;;;;;;;12.45;11.25;;;9.70;99.90;;;;;;4961662;28;20130;-75
2023/12/17 03:49:28;;;;;;;10.55;9.55;;;9.70;99.90;;;;;;4964262;28;20058;-79
2023/12/17 03:51:54;;;;;;;11.05;10.05;;;9.70;99.90;;;;;;4961435;28;20468;-77
2023/12/17 03:54:19;;;;;;;10.57;9.77;;;9.70;99.90;;;;;;4936225;28;20513;-78
2023/12/17 03:56:46;;;;;;;10.32;9.43;;;9.70;99.90;;;;;;4969269;28;20134;-76
2023/12/17 03:59:12;;;;;;;12.63;10.95;;;9.70;99.90;;;;;;4946031;28;20047;-78
2023/12/17 04:01:45;;;;;;;11.73;9.30;;;9.70;99.90;;;;;;4962940;28;20050;-78
2023/12/17 04:04:11;;;;;;;10.63;9.43;;;9.80;99.90;;;;;;4960817;28;20102;-77
2023/12/17 04:06:43;;;;;;;12.10;9.52;;;9.70;99.90;;;;;;4962093;28;20049;-77
2023/12/17 04:09:09;;;;;;;10.23;9.27;;;9.70;99.90;;;;;;4944512;28;20040;-80
2023/12/17 04:11:35;;;;;;;10.40;9.40;;;9.80;99.90;;;;;;4962677;28;20055;-76
2023/12/17 04:14:01;;;;;;;11.32;10.43;;;9.80;99.90;;;;;;4973931;28;20035;-75
2023/12/17 04:16:27;;;;;;;9.88;8.88;;;9.80;99.90;;;;;;4961779;28;20047;-76
2023/12/17 04:18:53;;;;;;;18.70;17.33;;;9.80;99.90;;;;;;4962211;28;20039;-79
2023/12/17 04:21:18;;;;;;;10.18;8.63;;;9.80;99.90;;;;;;4961178;28;20039;-76
2023/12/17 04:23:44;;;;;;;10.05;9.00;;;9.80;99.90;;;;;;4962337;28;20624;-75
2023/12/17 04:26:13;;;;;;;10.65;9.13;;;9.70;99.90;;;;;;4960893;28;20506;-76
2023/12/17 04:28:39;;;;;;;11.32;9.63;;;9.70;99.90;;;;;;4960642;28;20051;-76
2023/12/17 04:31:05;;;;;;;10.98;9.32;;;9.80;99.90;;;;;;4926802;28;20089;-75
2023/12/17 04:33:31;;;;;;;10.27;9.38;;;9.70;99.90;;;;;;4959315;28;20051;-78
2023/12/17 04:36:00;;;;;;;12.75;11.65;;;9.70;99.90;;;;;;4943985;28;20077;-76
2023/12/17 04:38:26;;;;;;;15.45;14.45;;;9.70;99.90;;;;;;4943697;28;20066;-76
2023/12/17 04:40:51;;;;;;;11.07;9.45;;;9.70;99.90;;;;;;4960892;28;20047;-76
2023/12/17 04:43:17;;;;;;;10.23;9.30;;;9.70;99.90;;;;;;4944813;28;20405;-80
2023/12/17 04:45:43;;;;;;;10.30;9.25;;;9.70;99.90;;;;;;4961516;28;20680;-77
2023/12/17 04:48:08;;;;;;;13.75;12.60;;;9.60;99.90;;;;;;4944378;28;20473;-78
2023/12/17 04:50:34;;;;;;;9.55;8.55;;;9.70;99.90;;;;;;4962227;28;20082;-76
2023/12/17 04:53:00;;;;;;;10.75;9.65;;;9.70;99.90;;;;;;4961710;28;20111;-75
2023/12/17 04:55:25;;;;;;;16.30;15.02;;;9.70;99.90;;;;;;4960569;28;20086;-76
2023/12/17 04:57:51;;;;;;;11.45;9.60;;;9.60;99.90;;;;;;4962259;28;20129;-76
2023/12/17 05:00:17;;;;;;;13.27;11.98;;;9.70;99.90;;;;;;5027902;28;20059;-77
2023/12/17 05:02:43;;;;;;;11.18;10.07;;;9.70;99.90;;;;;;5028491;28;20051;-76
2023/12/17 05:05:08;;;;;;;13.55;12.45;;;9.60;99.90;;;;;;5027596;28;20044;-75
2023/12/17 05:07:34;;;;;;;12.75;10.85;;;9.60;99.90;;;;;;4960764;28;20039;-77
2023/12/17 05:10:00;;;;;;;10.90;9.80;;;9.60;99.90;;;;;;4961052;28;20073;-75
2023/12/17 05:12:25;;;;;;;11.90;10.80;;;9.60;99.90;;;;;;4944168;28;20043;-79
2023/12/17 05:14:51;;;;;;;10.60;9.70;;;9.60;99.90;;;;;;4963252;28;20054;-77
2023/12/17 05:17:17;;;;;;;10.40;9.30;;;9.60;99.90;;;;;;4944137;28;20078;-77
2023/12/17 05:19:43;;;;;;;11.25;10.02;;;9.60;99.90;;;;;;5028890;28;20085;-75
2023/12/17 05:22:08;;;;;;;11.98;10.93;;;9.60;99.90;;;;;;4928526;29;20043;-76
2023/12/17 05:24:34;;;;;;;10.68;9.65;;;9.60;99.90;;;;;;5029059;28;20048;-75
2023/12/17 05:27:00;;;;;;;9.90;8.85;;;9.60;99.90;;;;;;4945126;28;20051;-76
2023/12/17 05:29:25;;;;;;;11.00;9.90;;;9.60;99.90;;;;;;4960346;28;20719;-76
2023/12/17 05:31:51;;;;;;;10.98;9.60;;;9.60;99.90;;;;;;4945709;28;20065;-75
2023/12/17 05:34:17;;;;;;;10.93;9.93;;;9.60;99.90;;;;;;4961232;28;20566;-76
2023/12/17 05:36:42;;;;;;;9.52;8.73;;;9.60;99.90;;;;;;4928540;28;20047;-76
2023/12/17 05:39:08;;;;;;;10.60;9.50;;;9.60;99.90;;;;;;5027543;28;20051;-78
2023/12/17 05:41:34;;;;;;;9.88;8.88;;;9.60;99.90;;;;;;4974225;28;20055;-77
2023/12/17 05:44:00;;;;;;;10.05;9.05;;;9.60;99.90;;;;;;4996574;28;20762;-76
2023/12/17 05:46:26;;;;;;;11.18;10.10;;;9.60;99.90;;;;;;5027926;28;20075;-75
2023/12/17 05:48:52;;;;;;;10.45;9.55;;;9.50;99.90;;;;;;5027766;28;20078;-76
2023/12/17 05:51:19;;;;;;;11.27;9.57;;;9.50;99.90;;;;;;4959820;28;20091;-77
2023/12/17 05:53:45;;;;;;;12.15;11.00;;;9.50;99.90;;;;;;4962464;28;20055;-76
2023/12/17 05:56:11;;;;;;;8.93;8.25;;;9.50;99.90;;;;;;4961131;28;20059;-80
2023/12/17 05:58:37;;;;;;;12.98;11.75;;;9.50;99.90;;;;;;4945448;28;20355;-76
2023/12/17 06:01:03;;;;;;;10.32;9.38;;;9.50;99.90;;;;;;4959826;28;20039;-77
2023/12/17 06:03:30;;;;;;;10.25;9.25;;;9.50;99.90;;;;;;4960256;28;20047;-77
2023/12/17 06:05:56;;;;;;;14.07;13.07;;;9.50;99.90;;;;;;4960542;28;20492;-80
2023/12/17 06:08:21;;;;;;;12.77;11.68;;;9.40;99.90;;;;;;4959186;28;20043;-78
2023/12/17 06:10:47;;;;;;;10.35;8.82;;;9.40;99.90;;;;;;4944932;28;20110;-79
2023/12/17 06:13:13;;;;;;;16.40;14.98;;;9.40;99.90;;;;;;5014639;28;20577;-79
2023/12/17 06:15:39;;;;;;;10.50;9.52;;;9.40;99.90;;;;;;4960853;28;20527;-81
2023/12/17 06:18:05;;;;;;;19.38;18.27;;;10.00;99.90;;;;;;4943480;28;20053;-80
2023/12/17 06:20:31;;;;;;;8.95;8.07;;;9.40;99.90;;;;;;4960377;28;20093;-78
2023/12/17 06:22:56;;;;;;;9.23;8.48;;;9.40;99.90;;;;;;4960105;28;20055;-77
2023/12/17 06:25:22;;;;;;;8.18;7.47;;;9.40;99.90;;;;;;4959165;28;20079;-76
2023/12/17 06:27:52;;;;;;;9.60;8.77;;;9.40;99.90;;;;;;4960453;28;20080;-76
2023/12/17 06:30:18;;;;;;;14.85;8.23;;;9.40;99.90;;;;;;4942833;28;20078;-77
2023/12/17 06:32:45;;;;;;;9.18;8.43;;;9.30;99.90;;;;;;4960081;28;20137;-78
2023/12/17 06:35:10;;;;;;;12.13;11.20;;;9.30;99.90;;;;;;4943360;28;20086;-78
2023/12/17 06:37:36;;;;;;;9.32;8.40;;;9.30;99.90;;;;;;5027110;28;20395;-79
2023/12/17 06:40:02;;;;;;;11.30;10.30;;;9.30;99.90;;;;;;4944056;28;20062;-78
2023/12/17 06:42:27;;;;;;;8.95;8.23;;;9.20;99.90;;;;;;5026152;28;20051;-78
2023/12/17 06:44:53;;;;;;;10.00;8.95;;;9.20;99.90;;;;;;5011247;28;20044;-77
2023/12/17 06:47:19;;;;;;;9.32;8.43;;;9.20;99.90;;;;;;4958984;28;20047;-79
2023/12/17 06:49:45;;;;;;;10.57;9.60;;;9.20;99.90;;;;;;5027086;28;20047;-78
2023/12/17 06:52:10;;;;;;;10.07;9.32;;;9.20;99.90;;;;;;5009309;28;20086;-77
2023/12/17 06:54:36;;;;;;;10.80;9.80;;;9.20;99.90;;;;;;4964417;28;20035;-80
2023/12/17 06:57:02;;;;;;;13.20;12.23;;;9.20;99.90;;;;;;4959392;28;20058;-77
2023/12/17 06:59:27;;;;;;;13.57;12.48;;;9.10;99.90;;;;;;4959011;28;20074;-80
2023/12/17 07:01:54;;;;;;;11.25;10.25;;;9.10;99.90;;;;;;4944154;28;20039;-78
2023/12/17 07:04:19;;;;;;;13.07;11.98;;;9.10;99.90;;;;;;4957945;28;20047;-78
2023/12/17 07:06:46;;;;;;;11.50;10.52;;;9.10;99.90;;;;;;4943996;28;20039;-77
2023/12/17 07:09:12;;;;;;;11.18;10.07;;;9.20;99.90;;;;;;4957876;28;20079;-79
2023/12/17 07:11:39;;;;;;;13.43;12.32;;;9.10;99.90;;;;;;4959949;28;20070;-77
2023/12/17 07:14:05;;;;;;;14.55;11.98;;;9.20;99.90;;;;;;4943145;28;20040;-79
2023/12/17 07:16:30;;;;;;;20.77;19.58;;;9.20;99.90;;;;;;5026081;28;20062;-78
2023/12/17 07:18:56;;;;;;;11.48;10.40;;;9.20;99.90;;;;;;4943396;28;20078;-78
2023/12/17 07:21:22;;;;;;;13.65;12.70;;;9.20;99.90;;;;;;5025814;28;20047;-78
2023/12/17 07:23:48;;;;;;;15.57;14.23;;;9.20;99.90;;;;;;4943483;28;20043;-80
2023/12/17 07:26:14;;;;;;;13.07;11.98;;;9.20;99.90;;;;;;4957975;28;20054;-77
2023/12/17 07:28:40;;;;;;;12.00;10.80;;;9.10;99.90;;;;;;4959786;28;20051;-76
2023/12/17 07:31:06;;;;;;;12.35;11.25;;;9.10;99.90;;;;;;4958761;28;20072;-75
2023/12/17 07:33:32;;;;;;;12.77;11.57;;;9.10;99.90;;;;;;4958747;28;20109;-77
2023/12/17 07:35:57;;;;;;;12.48;11.25;;;9.10;99.90;;;;;;4959568;28;20035;-77
2023/12/17 07:38:23;;;;;;;11.82;10.77;;;9.10;99.90;;;;;;4959485;28;20555;-79
2023/12/17 07:40:49;;;;;;;12.90;11.75;;;9.20;99.90;;;;;;4959084;28;20051;-76
2023/12/17 07:43:14;;;;;;;15.50;14.30;;;9.20;99.90;;;;;;5025498;28;20134;-78
2023/12/17 07:45:40;;;;;;;15.65;14.30;;;9.10;99.90;;;;;;4959689;28;20120;-77
2023/12/17 07:48:06;;;;;;;15.75;14.48;;;9.20;99.90;;;;;;4958686;28;20104;-78
2023/12/17 07:50:32;;;;;;;19.10;17.85;;;9.20;99.90;;;;;;4958461;28;20047;-77
2023/12/17 07:52:58;;;;;;;18.20;16.58;;;9.20;99.90;;;;;;4959454;28;20047;-77
2023/12/17 07:55:24;;;;;;;18.35;16.95;;;9.20;99.90;;;;;;5024788;28;20066;-78
2023/12/17 07:57:50;;;;;;;15.07;13.85;;;9.10;99.90;;;;;;4959660;28;20066;-76
2023/12/17 08:00:16;;;;;;;14.45;12.02;;;9.10;99.90;;;;;;5025783;28;20130;-79
2023/12/17 08:02:41;;;;;;;13.20;12.10;;;9.10;99.90;;;;;;4958887;28;20086;-75
2023/12/17 08:05:08;;;;;;;13.20;12.10;;;9.10;99.90;;;;;;4958281;28;20047;-78
2023/12/17 08:07:35;;;;;;;14.27;12.23;;;9.10;99.90;;;;;;4958450;28;20039;-79
2023/12/17 08:10:02;;;;;;;15.20;13.82;;;9.10;99.90;;;;;;4958534;28;20073;-75
2023/12/17 08:12:28;;;;;;;13.57;12.35;;;9.10;99.90;;;;;;4926278;28;20062;-76
2023/12/17 08:14:53;;;;;;;15.50;14.07;;;9.10;99.90;;;;;;4949988;28;20047;-77
2023/12/17 08:17:19;;;;;;;11.70;10.50;;;9.10;99.90;;;;;;5029160;28;20581;-78
2023/12/17 08:19:44;;;;;;;14.18;13.02;;;9.10;99.90;;;;;;5030244;28;20042;-77
2023/12/17 08:22:10;;;;;;;11.52;10.52;;;9.10;99.90;;;;;;4960954;28;20039;-76
2023/12/17 08:24:36;;;;;;;20.85;19.42;;;9.10;99.90;;;;;;4945730;28;20059;-79
2023/12/17 08:27:05;;;;;;;15.57;14.02;;;9.10;99.90;;;;;;4961929;28;20130;-75
2023/12/17 08:29:30;;;;;;;12.10;10.88;;;9.10;99.90;;;;;;4945231;28;20039;-79
2023/12/17 08:31:56;;;;;;;15.02;13.63;;;9.10;99.90;;;;;;4962457;28;20088;-76
2023/12/17 08:34:24;;;;;;;11.07;10.07;;;9.10;99.90;;;;;;5027546;28;20113;-76
2023/12/17 08:36:51;;;;;;;9.38;8.48;;;9.10;99.90;;;;;;4961885;28;20051;-78
2023/12/17 08:39:17;;;;;;;45.88;43.60;;;9.10;99.90;;;;;;4960664;28;20212;-78
2023/12/17 08:41:42;;;;;;;9.80;8.55;;;9.10;99.90;;;;;;4962009;28;20553;-75
2023/12/17 08:44:08;;;;;;;11.23;9.98;;;9.10;99.90;;;;;;4945443;28;20074;-76
2023/12/17 08:46:34;;;;;;;10.40;9.48;;;9.10;99.90;;;;;;4960733;28;20031;-77
2023/12/17 08:49:01;;;;;;;10.15;9.13;;;9.10;99.90;;;;;;4961389;28;20565;-76
2023/12/17 08:51:26;;;;;;;9.75;8.80;;;9.10;99.90;;;;;;4944270;28;20043;-77
2023/12/17 08:53:52;;;;;;;9.77;8.68;;;9.10;99.90;;;;;;4945410;28;20047;-76
2023/12/17 08:56:18;;;;;;;9.73;8.77;;;9.00;99.90;;;;;;4959924;28;20082;-77
2023/12/17 08:58:44;;;;;;;8.38;7.38;;;9.10;99.90;;;;;;4968035;28;20036;-76
2023/12/17 09:01:10;;;;;;;10.45;9.40;;;9.10;99.90;;;;;;4943830;28;20050;-77
2023/12/17 09:03:36;;;;;;;25.08;23.88;;;9.20;99.90;;;;;;4946095;28;20051;-78
2023/12/17 09:06:02;;;;;;;9.00;8.05;;;9.20;99.90;;;;;;4944767;28;20102;-75
2023/12/17 09:08:27;;;;;;;10.05;7.60;;;9.10;99.90;;;;;;4969540;28;20070;-77
2023/12/17 09:10:53;;;;;;;14.27;13.35;;;9.10;99.90;;;;;;4962215;28;20512;-75
2023/12/17 09:13:18;;;;;;;8.48;7.78;;;9.20;99.90;;;;;;4965037;28;20417;-76
2023/12/17 09:15:44;;;;;;;11.32;10.43;;;9.20;99.90;;;;;;4990295;28;20051;-77
2023/12/17 09:18:10;;;;;;;14.68;13.70;;;9.20;99.90;;;;;;4928298;28;20123;-74
2023/12/17 09:20:36;;;;;;;8.93;8.13;;;9.20;99.90;;;;;;4959788;28;20142;-76
2023/12/17 09:23:02;;;;;;;12.20;11.30;;;9.20;99.90;;;;;;4970557;28;20524;-75
2023/12/17 09:25:28;;;;;;;25.38;23.80;;;9.20;99.90;;;;;;4961209;28;20059;-79
2023/12/17 09:27:54;;;;;;;11.75;8.50;;;9.20;99.90;;;;;;4960664;28;20047;-77
2023/12/17 09:30:19;;;;;;;16.05;14.85;;;9.20;99.90;;;;;;4961236;28;20047;-81
2023/12/17 09:32:46;;;;;;;14.35;13.13;;;9.20;99.90;;;;;;4964027;28;20130;-75
2023/12/17 09:35:11;;;;;;;13.32;12.13;;;9.30;99.90;;;;;;4958887;28;20048;-78
2023/12/17 09:37:38;;;;;;;11.35;10.20;;;9.30;99.90;;;;;;4998107;28;20054;-80
2023/12/17 09:40:07;;;;;;;10.05;9.13;;;9.30;99.90;;;;;;5025513;28;20045;-76
2023/12/17 09:42:33;;;;;;;33.17;31.17;;;9.20;99.90;;;;;;5024558;28;20044;-78
2023/12/17 09:44:59;;;;;;;11.70;10.50;;;9.30;99.90;;;;;;5036909;28;20132;-77
2023/12/17 09:47:25;;;;;;;14.65;13.23;;;9.30;99.90;;;;;;5030739;28;20040;-77
2023/12/17 09:49:51;;;;;;;18.15;16.75;;;9.30;99.90;;;;;;4959747;28;20053;-76
2023/12/17 09:52:18;;;;;;;15.43;13.88;;;9.20;99.90;;;;;;5008340;28;20114;-76
2023/12/17 09:54:48;;;;;;;12.60;11.30;;;9.30;99.90;;;;;;4963029;28;20051;-78
2023/12/17 09:57:16;;;;;;;15.93;14.23;;;9.30;99.90;;;;;;4977898;28;20545;-79
2023/12/17 09:59:43;;;;;;;15.90;12.95;;;9.30;99.90;;;;;;4942237;28;20569;-76
2023/12/17 10:02:15;;;;;;;20.13;17.58;;;9.30;99.90;;;;;;4966338;28;20051;-75
2023/12/17 10:04:41;;;;;;;16.42;14.82;;;9.30;99.90;;;;;;4937825;28;20058;-76
2023/12/17 10:07:07;;;;;;;20.92;13.90;;;9.30;99.90;;;;;;4931626;28;20051;-77
2023/12/17 10:09:35;;;;;;;23.02;20.83;;;9.30;99.90;;;;;;4958228;28;20035;-77
2023/12/17 10:12:02;;;;;;;19.52;15.38;;;9.30;99.90;;;;;;4962779;28;20050;-74
2023/12/17 10:14:30;;;;;;;22.95;15.98;;;9.30;99.90;;;;;;4948870;28;20513;-80
2023/12/17 10:16:57;;;;;;;20.15;15.02;;;9.30;99.90;;;;;;5002385;28;20534;-77
2023/12/17 10:19:24;;;;;;;20.38;15.05;;;9.30;99.90;;;;;;4942677;28;20043;-77
2023/12/17 10:21:49;;;;;;;33.60;30.80;;;9.30;99.90;;;;;;4965506;28;20047;-76
2023/12/17 10:24:15;;;;;;;31.60;28.92;;;9.30;99.90;;;;;;4950054;28;20124;-82
2023/12/17 10:26:42;;;;;;;17.48;13.43;;;9.30;99.90;;;;;;4962749;28;20050;-75
2023/12/17 10:29:12;;;;;;;16.63;14.07;;;9.30;99.90;;;;;;5025153;28;20039;-79
2023/12/17 10:31:40;;;;;;;18.70;14.27;;;9.20;99.90;;;;;;4976097;28;20045;-76
2023/12/17 10:34:18;;;;;;;16.08;14.43;;;9.30;99.90;;;;;;4940350;28;20118;-77
2023/12/17 10:36:48;;;;;;;19.08;14.20;;;9.30;99.90;;;;;;4946066;28;20054;-78
2023/12/17 10:39:19;;;;;;;21.80;18.92;;;9.20;99.90;;;;;;4958749;28;20581;-78
2023/12/17 10:41:47;;;;;;;17.35;14.30;;;9.20;99.90;;;;;;4959520;28;20078;-78
2023/12/17 10:44:14;;;;;;;19.17;16.83;;;9.30;99.90;;;;;;4959036;28;20106;-79
2023/12/17 10:46:42;;;;;;;19.42;17.42;;;9.20;99.90;;;;;;4958683;28;20109;-77
2023/12/17 10:49:08;;;;;;;18.02;14.70;;;9.30;99.90;;;;;;4931273;28;20098;-78
2023/12/17 10:51:37;;;;;;;21.83;19.90;;;9.30;99.90;;;;;;4942285;28;20099;-83
2023/12/17 10:54:03;;;;;;;18.08;13.27;;;9.30;99.90;;;;;;4946363;28;20054;-78
2023/12/17 10:56:34;;;;;;;24.38;22.27;;;9.30;99.90;;;;;;4956381;28;20051;-78
2023/12/17 10:59:10;;;;;;;17.42;14.73;;;9.30;99.90;;;;;;4942893;28;20050;-75
2023/12/17 11:01:37;;;;;;;17.10;15.38;;;9.30;99.90;;;;;;4943413;28;20101;-77
2023/12/17 11:04:05;;;;;;;22.50;20.42;;;9.30;99.90;;;;;;4956893;28;20095;-77
2023/12/17 11:06:31;;;;;;;26.23;24.13;;;9.30;99.90;;;;;;4959006;28;20031;-75
2023/12/17 11:08:56;;;;;;;15.88;12.50;;;9.30;99.90;;;;;;4926185;28;20087;-74
2023/12/17 11:11:22;;;;;;;19.77;17.98;;;9.30;99.90;;;;;;4942929;28;20499;-76
2023/12/17 11:13:49;;;;;;;18.40;16.52;;;9.30;99.90;;;;;;4945714;28;20098;-75
2023/12/17 11:16:21;;;;;;;18.27;15.73;;;9.30;99.90;;;;;;4959562;28;20051;-77
2023/12/17 11:18:47;;;;;;;19.77;18.20;;;9.30;99.90;;;;;;4959610;28;20050;-75
2023/12/17 11:21:14;;;;;;;27.73;25.73;;;9.30;99.90;;;;;;4941445;28;20044;-78
2023/12/17 11:23:39;;;;;;;23.98;22.40;;;9.20;99.90;;;;;;4944228;28;20055;-76
2023/12/17 11:26:06;;;;;;;16.90;14.70;;;9.20;99.90;;;;;;5025745;28;20425;-78
2023/12/17 11:28:32;;;;;;;16.88;15.38;;;9.20;99.90;;;;;;4943946;28;20047;-76
2023/12/17 11:30:58;;;;;;;15.13;13.60;;;9.30;99.90;;;;;;4942416;28;20040;-77
2023/12/17 11:33:25;;;;;;;20.05;18.35;;;9.20;99.90;;;;;;4942755;28;20515;-77
2023/12/17 11:35:51;;;;;;;19.35;17.55;;;9.30;99.90;;;;;;4959915;28;20051;-78
2023/12/17 11:38:17;;;;;;;17.67;16.08;;;9.30;99.90;;;;;;4942651;28;20391;-77
2023/12/17 11:40:43;;;;;;;14.15;12.65;;;9.20;99.90;;;;;;4928361;28;20047;-76
2023/12/17 11:43:09;;;;;;;12.85;10.88;;;9.20;99.90;;;;;;4926206;28;20587;-77
2023/12/17 11:45:47;;;;;;;18.33;16.67;;;9.20;99.90;;;;;;4943690;28;20066;-75
2023/12/17 11:48:18;;;;;;;20.02;18.33;;;9.20;99.90;;;;;;4958911;28;20107;-75
2023/12/17 11:50:49;;;;;;;19.10;17.40;;;9.20;99.90;;;;;;4946131;28;20050;-75
2023/12/17 11:53:17;;;;;;;19.13;17.10;;;9.20;99.90;;;;;;4964253;28;20047;-77
2023/12/17 11:55:50;;;;;;;19.42;16.42;;;9.20;99.90;;;;;;4963885;28;20070;-75
2023/12/17 11:58:18;;;;;;;18.00;14.80;;;9.20;99.90;;;;;;4962876;28;20091;-77
2023/12/17 12:01:08;;;;;;;17.45;14.65;;;9.20;99.90;;;;;;4943250;28;20105;-75
2023/12/17 12:03:34;;;;;;;17.42;14.98;;;9.20;99.90;;;;;;4959226;29;20057;-78
2023/12/17 12:06:06;;;;;;;22.27;19.80;;;9.20;99.90;;;;;;4962661;28;20047;-77
2023/12/17 12:08:34;;;;;;;18.42;15.57;;;9.20;99.90;;;;;;4961300;29;20035;-75
2023/12/17 12:11:02;;;;;;;19.90;17.90;;;9.20;99.90;;;;;;4979470;28;20421;-75
2023/12/17 12:13:28;;;;;;;25.85;23.60;;;9.20;99.90;;;;;;4953991;28;20047;-75
2023/12/17 12:15:57;;;;;;;22.30;16.70;;;9.20;99.90;;;;;;4966041;28;20139;-75
2023/12/17 12:18:23;;;;;;;22.60;15.95;;;9.20;99.90;;;;;;4982993;28;20039;-75
2023/12/17 12:20:49;;;;;;;19.25;13.20;;;9.20;99.90;;;;;;4949165;28;20053;-76
2023/12/17 12:23:15;;;;;;;21.42;18.67;;;9.20;99.90;;;;;;4950401;28;20043;-75
2023/12/17 12:25:41;;;;;;;24.05;21.10;;;9.20;99.90;;;;;;4980758;28;20042;-76
2023/12/17 12:28:15;;;;;;;18.73;13.45;;;9.20;99.90;;;;;;4966214;28;20045;-75
2023/12/17 12:30:41;;;;;;;22.30;18.80;;;9.20;99.90;;;;;;4964304;28;20477;-77
2023/12/17 12:33:15;;;;;;;19.98;17.35;;;9.20;99.90;;;;;;4927928;29;20047;-77
2023/12/17 12:35:42;;;;;;;19.85;17.73;;;9.20;99.90;;;;;;4961981;29;20054;-77